createdAt,value
2018-12-17T00:01:30.344Z,99.90
2018-12-17T00:03:59.063Z,99.90
2018-12-17T00:06:28.089Z,99.90
2018-12-17T00:08:56.804Z,99.90
2018-12-17T00:11:25.493Z,99.90
2018-12-17T00:13:54.209Z,99.90
2018-12-17T00:16:22.880Z,99.90
2018-12-17T00:18:51.650Z,99.90
2018-12-17T00:21:20.410Z,99.90
2018-12-17T00:23:49.118Z,98.70
2018-12-17T00:26:17.836Z,99.90
2018-12-17T00:28:46.523Z,99.90
2018-12-17T00:31:15.240Z,99.90
2018-12-17T00:33:43.991Z,99.90
2018-12-17T00:36:12.682Z,99.10
2018-12-17T00:38:41.457Z,98.70
2018-12-17T00:41:10.290Z,97.60
2018-12-17T00:43:38.960Z,96.00
2018-12-17T00:46:07.672Z,97.10
2018-12-17T00:48:36.590Z,97.00
2018-12-17T00:51:05.500Z,93.80
2018-12-17T00:53:34.176Z,94.60
2018-12-17T00:56:02.953Z,96.10
2018-12-17T00:58:31.670Z,96.40
2018-12-17T01:01:00.384Z,93.70
2018-12-17T01:03:29.100Z,96.40
2018-12-17T01:05:57.783Z,95.10
2018-12-17T01:08:26.685Z,96.20
2018-12-17T01:10:55.383Z,96.50
2018-12-17T01:13:24.166Z,95.20
2018-12-17T01:15:52.906Z,94.40
2018-12-17T01:18:21.605Z,95.60
2018-12-17T01:20:50.325Z,97.30
2018-12-17T01:23:19.030Z,96.60
2018-12-17T01:25:47.760Z,95.20
2018-12-17T01:28:22.195Z,94.00
2018-12-17T01:30:47.222Z,94.60
2018-12-17T01:33:15.951Z,96.30
2018-12-17T01:35:44.902Z,96.20
2018-12-17T01:38:13.638Z,92.20
2018-12-17T01:40:42.379Z,93.80
2018-12-17T01:43:11.050Z,92.50
2018-12-17T01:45:40.283Z,92.40
2018-12-17T01:48:09.024Z,94.30
2018-12-17T01:50:37.726Z,94.50
2018-12-17T01:53:06.443Z,97.00
2018-12-17T01:55:35.192Z,93.00
2018-12-17T01:58:03.854Z,92.40
2018-12-17T02:00:32.589Z,93.60
2018-12-17T02:03:01.270Z,95.20
2018-12-17T02:05:29.993Z,94.20
2018-12-17T02:07:58.696Z,92.40
2018-12-17T02:10:27.433Z,94.00
2018-12-17T02:12:56.103Z,92.60
2018-12-17T02:15:24.820Z,93.60
2018-12-17T02:17:53.556Z,94.60
2018-12-17T02:20:22.276Z,94.10
2018-12-17T02:22:50.965Z,95.00
2018-12-17T02:25:19.674Z,91.10
2018-12-17T02:27:48.402Z,89.00
2018-12-17T02:30:17.392Z,89.30
2018-12-17T02:32:46.421Z,90.80
2018-12-17T02:35:15.177Z,88.80
2018-12-17T02:37:43.899Z,90.50
2018-12-17T02:40:13.817Z,90.80
2018-12-17T02:42:42.562Z,90.30
2018-12-17T02:45:11.332Z,91.90
2018-12-17T02:47:40.054Z,90.70
2018-12-17T02:50:08.792Z,91.50
2018-12-17T02:52:37.551Z,91.50
2018-12-17T02:55:06.655Z,88.30
2018-12-17T02:57:35.552Z,81.00
2018-12-17T03:00:06.215Z,77.20
2018-12-17T03:02:34.925Z,83.60
2018-12-17T03:05:04.385Z,85.70
2018-12-17T03:07:33.091Z,89.60
2018-12-17T03:10:01.843Z,89.30
2018-12-17T03:12:30.527Z,85.10
2018-12-17T03:14:59.266Z,86.60
2018-12-17T03:17:27.964Z,86.10
2018-12-17T03:19:56.623Z,90.20
2018-12-17T03:22:25.337Z,91.10
2018-12-17T03:24:54.094Z,92.80
2018-12-17T03:27:22.799Z,92.20
2018-12-17T03:29:51.515Z,92.90
2018-12-17T03:32:20.218Z,92.50
2018-12-17T03:34:48.951Z,91.70
2018-12-17T03:37:17.706Z,87.60
2018-12-17T03:39:46.419Z,90.40
2018-12-17T03:42:15.129Z,86.40
2018-12-17T03:44:43.898Z,90.30
2018-12-17T03:47:12.571Z,92.00
2018-12-17T03:49:41.329Z,91.50
2018-12-17T03:52:09.997Z,90.90
2018-12-17T03:54:38.749Z,91.10
2018-12-17T03:57:07.456Z,91.10
2018-12-17T03:59:37.101Z,86.70
2018-12-17T04:02:05.842Z,85.80
2018-12-17T04:04:34.606Z,84.30
2018-12-17T04:07:03.289Z,91.10
2018-12-17T04:09:32.175Z,91.20
2018-12-17T04:12:00.872Z,85.80
2018-12-17T04:14:29.571Z,79.20
2018-12-17T04:16:58.314Z,78.90
2018-12-17T04:19:27.054Z,81.00
2018-12-17T04:21:55.765Z,85.70
2018-12-17T04:24:24.522Z,84.50
2018-12-17T04:26:53.202Z,85.90
2018-12-17T04:29:22.191Z,86.10
2018-12-17T04:31:51.000Z,83.30
2018-12-17T04:34:20.764Z,79.90
2018-12-17T04:36:49.457Z,86.30
2018-12-17T04:39:18.170Z,80.60
2018-12-17T04:41:46.876Z,75.50
2018-12-17T04:44:15.582Z,78.80
2018-12-17T04:46:44.309Z,82.50
2018-12-17T04:49:13.039Z,85.80
2018-12-17T04:51:41.782Z,84.80
2018-12-17T04:54:10.504Z,92.10
2018-12-17T04:56:39.210Z,96.00
2018-12-17T04:59:14.378Z,81.30
2018-12-17T05:01:38.731Z,69.00
2018-12-17T05:04:07.443Z,59.30
2018-12-17T05:06:36.204Z,66.50
2018-12-17T05:09:06.965Z,66.00
2018-12-17T05:11:35.674Z,73.80
2018-12-17T05:14:05.937Z,74.70
2018-12-17T05:16:34.624Z,73.30
2018-12-17T05:19:03.389Z,80.00
2018-12-17T05:21:32.144Z,77.50
2018-12-17T05:24:00.867Z,80.70
2018-12-17T05:26:29.606Z,77.60
2018-12-17T05:28:58.359Z,81.80
2018-12-17T05:31:27.066Z,84.80
2018-12-17T05:33:56.158Z,88.70
2018-12-17T05:36:24.925Z,88.70
2018-12-17T05:38:54.696Z,91.00
2018-12-17T05:41:23.443Z,83.90
2018-12-17T05:43:52.128Z,85.30
2018-12-17T05:46:20.830Z,90.60
2018-12-17T05:48:49.537Z,88.60
2018-12-17T05:51:18.219Z,91.90
2018-12-17T05:53:46.887Z,90.20
2018-12-17T05:56:16.009Z,91.70
2018-12-17T05:58:44.754Z,85.30
2018-12-17T06:01:13.457Z,81.60
2018-12-17T06:03:42.165Z,84.50
2018-12-17T06:06:10.985Z,91.10
2018-12-17T06:08:39.715Z,91.90
2018-12-17T06:11:08.419Z,86.90
2018-12-17T06:13:37.105Z,90.80
2018-12-17T06:16:05.842Z,87.00
2018-12-17T06:18:34.703Z,87.10
2018-12-17T06:21:03.397Z,88.70
2018-12-17T06:23:32.064Z,88.90
2018-12-17T06:26:00.789Z,88.70
2018-12-17T06:28:29.573Z,87.70
2018-12-17T06:30:58.273Z,92.50
2018-12-17T06:33:26.979Z,92.60
2018-12-17T06:35:55.735Z,93.60
2018-12-17T06:38:24.490Z,93.50
2018-12-17T06:40:53.222Z,92.50
2018-12-17T06:43:21.941Z,92.90
2018-12-17T06:45:50.728Z,94.90
2018-12-17T06:48:19.470Z,93.80
2018-12-17T06:50:48.188Z,94.30
2018-12-17T06:53:16.929Z,95.10
2018-12-17T06:55:47.501Z,96.10
2018-12-17T06:58:16.414Z,96.40
2018-12-17T07:00:45.154Z,94.20
2018-12-17T07:03:13.890Z,94.50
2018-12-17T07:05:42.610Z,91.10
2018-12-17T07:08:13.005Z,90.00
2018-12-17T07:10:41.673Z,90.10
2018-12-17T07:13:10.370Z,90.80
2018-12-17T07:15:39.073Z,87.20
2018-12-17T07:18:07.742Z,86.40
2018-12-17T07:20:36.488Z,88.50
2018-12-17T07:23:05.183Z,87.20
2018-12-17T07:25:34.453Z,90.80
2018-12-17T07:28:03.198Z,91.40
2018-12-17T07:30:31.890Z,90.60
2018-12-17T07:33:00.559Z,84.00
2018-12-17T07:35:29.291Z,86.90
2018-12-17T07:37:58.223Z,80.80
2018-12-17T07:40:26.931Z,86.80
2018-12-17T07:42:55.608Z,81.20
2018-12-17T07:45:24.286Z,82.00
2018-12-17T07:47:53.026Z,83.60
2018-12-17T07:50:21.738Z,77.30
2018-12-17T07:52:50.521Z,79.90
2018-12-17T07:55:19.441Z,77.50
2018-12-17T07:57:48.200Z,78.90
2018-12-17T08:00:16.943Z,79.40
2018-12-17T08:02:45.628Z,85.80
2018-12-17T08:05:14.372Z,92.90
2018-12-17T08:07:44.197Z,89.40
2018-12-17T08:10:13.233Z,73.50
2018-12-17T08:12:41.962Z,72.80
2018-12-17T08:15:10.659Z,69.80
2018-12-17T08:17:39.379Z,71.40
2018-12-17T08:20:08.106Z,74.00
2018-12-17T08:22:37.108Z,74.30
2018-12-17T08:25:05.825Z,73.90
2018-12-17T08:27:34.612Z,72.60
2018-12-17T08:30:04.329Z,73.00
2018-12-17T08:32:33.407Z,70.80
2018-12-17T08:35:02.147Z,71.20
2018-12-17T08:37:30.808Z,70.60
2018-12-17T08:40:00.535Z,72.50
2018-12-17T08:42:29.266Z,73.60
2018-12-17T08:44:58.004Z,72.50
2018-12-17T08:47:26.856Z,77.60
2018-12-17T08:49:55.530Z,74.60
2018-12-17T08:52:24.231Z,71.00
2018-12-17T08:54:52.966Z,61.80
2018-12-17T08:57:21.684Z,58.40
2018-12-17T08:59:50.421Z,58.80
2018-12-17T09:02:19.144Z,61.00
2018-12-17T09:04:47.943Z,62.60
2018-12-17T09:07:16.671Z,54.80
2018-12-17T09:09:45.381Z,51.70
2018-12-17T09:12:14.088Z,57.60
2018-12-17T09:14:42.762Z,56.40
2018-12-17T09:17:11.476Z,57.80
2018-12-17T09:19:40.192Z,51.40
2018-12-17T09:22:08.929Z,52.50
2018-12-17T09:24:37.744Z,45.50
2018-12-17T09:27:06.444Z,47.60
2018-12-17T09:29:35.150Z,45.00
2018-12-17T09:32:03.823Z,48.30
2018-12-17T09:34:32.515Z,42.40
2018-12-17T09:37:01.297Z,58.80
2018-12-17T09:39:30.196Z,50.00
2018-12-17T09:41:58.905Z,53.30
2018-12-17T09:44:27.605Z,45.00
2018-12-17T09:46:56.304Z,42.50
2018-12-17T09:49:25.127Z,45.20
2018-12-17T09:51:53.853Z,28.40
2018-12-17T09:54:22.599Z,24.40
2018-12-17T09:56:51.305Z,25.50
2018-12-17T09:59:20.020Z,25.10
2018-12-17T10:01:50.675Z,43.90
2018-12-17T10:04:19.382Z,28.70
2018-12-17T10:06:48.104Z,24.50
2018-12-17T10:09:16.802Z,28.40
2018-12-17T10:11:45.485Z,40.80
2018-12-17T10:14:14.247Z,44.20
2018-12-17T10:16:42.965Z,60.00
2018-12-17T10:19:11.668Z,59.70
2018-12-17T10:21:40.442Z,57.20
2018-12-17T10:24:09.304Z,56.70
2018-12-17T10:26:38.021Z,59.90
2018-12-17T10:29:06.962Z,62.90
2018-12-17T10:31:35.669Z,65.50
2018-12-17T10:34:04.375Z,71.30
2018-12-17T10:36:33.168Z,74.10
2018-12-17T10:39:01.877Z,73.40
2018-12-17T10:41:30.557Z,71.40
2018-12-17T10:43:59.291Z,80.80
2018-12-17T10:46:27.984Z,82.70
2018-12-17T10:48:56.656Z,74.50
2018-12-17T10:51:25.375Z,66.80
2018-12-17T10:53:54.174Z,69.40
2018-12-17T10:56:22.938Z,58.80
2018-12-17T10:58:51.693Z,59.80
2018-12-17T11:01:25.772Z,70.90
2018-12-17T11:03:56.149Z,70.10
2018-12-17T11:06:25.024Z,73.90
2018-12-17T11:08:53.725Z,85.70
2018-12-17T11:11:22.427Z,85.30
2018-12-17T11:13:51.125Z,91.40
2018-12-17T11:16:19.913Z,93.60
2018-12-17T11:18:48.631Z,88.90
2018-12-17T11:21:17.554Z,88.70
2018-12-17T11:23:46.358Z,86.30
2018-12-17T11:26:15.093Z,82.80
2018-12-17T11:28:44.130Z,81.80
2018-12-17T11:31:12.965Z,79.60
2018-12-17T11:33:41.735Z,85.00
2018-12-17T11:36:10.507Z,83.90
2018-12-17T11:38:39.225Z,85.20
2018-12-17T11:41:07.964Z,82.60
2018-12-17T11:43:43.609Z,80.30
2018-12-17T11:46:09.073Z,78.40
2018-12-17T11:48:37.826Z,83.00
2018-12-17T11:51:06.552Z,73.60
2018-12-17T11:53:35.290Z,69.60
2018-12-17T11:56:04.023Z,68.10
2018-12-17T11:58:32.770Z,69.70
2018-12-17T12:01:02.013Z,71.60
2018-12-17T12:03:31.236Z,70.40
2018-12-17T12:05:59.973Z,83.50
2018-12-17T12:08:28.673Z,69.50
2018-12-17T12:10:57.349Z,66.70
2018-12-17T12:13:26.018Z,75.40
2018-12-17T12:15:54.818Z,74.40
2018-12-17T12:18:23.581Z,71.70
2018-12-17T12:20:52.310Z,56.20
2018-12-17T12:23:21.057Z,76.70
2018-12-17T12:25:49.788Z,59.10
2018-12-17T12:28:18.677Z,63.90
2018-12-17T12:30:47.455Z,69.20
2018-12-17T12:33:16.279Z,77.80
2018-12-17T12:35:45.022Z,77.70
2018-12-17T12:38:13.773Z,76.30
2018-12-17T12:40:42.507Z,83.30
2018-12-17T12:43:11.260Z,81.00
2018-12-17T12:45:40.004Z,83.40
2018-12-17T12:48:08.739Z,91.50
2018-12-17T12:50:37.438Z,89.70
2018-12-17T12:53:06.214Z,90.60
2018-12-17T12:55:34.956Z,90.80
2018-12-17T12:58:04.065Z,93.50
2018-12-17T13:00:33.100Z,95.10
2018-12-17T13:03:01.844Z,94.50
2018-12-17T13:05:30.569Z,95.10
2018-12-17T13:07:59.362Z,97.40
2018-12-17T13:10:28.032Z,94.00
2018-12-17T13:12:56.808Z,93.70
2018-12-17T13:15:25.528Z,93.70
2018-12-17T13:17:54.246Z,93.80
2018-12-17T13:20:22.999Z,93.40
2018-12-17T13:22:51.695Z,93.80
2018-12-17T13:25:22.068Z,94.70
2018-12-17T13:27:50.776Z,94.60
2018-12-17T13:30:20.592Z,93.70
2018-12-17T13:32:49.373Z,91.50
2018-12-17T13:35:18.098Z,93.50
2018-12-17T13:37:46.760Z,94.30
2018-12-17T13:40:15.545Z,95.30
2018-12-17T13:42:44.272Z,94.50
2018-12-17T13:45:13.164Z,95.00
2018-12-17T13:47:41.914Z,93.60
2018-12-17T13:50:16.077Z,92.40
2018-12-17T13:52:45.764Z,92.60
2018-12-17T13:55:14.927Z,92.40
2018-12-17T13:57:43.697Z,92.40
2018-12-17T14:00:12.809Z,91.40
2018-12-17T14:02:41.548Z,93.80
2018-12-17T14:05:10.249Z,92.70
2018-12-17T14:07:38.977Z,95.00
2018-12-17T14:10:14.358Z,93.00
2018-12-17T14:12:43.072Z,94.20
2018-12-17T14:15:11.781Z,93.60
2018-12-17T14:17:42.178Z,92.20
2018-12-17T14:20:16.439Z,94.50
2018-12-17T14:22:45.107Z,95.20
2018-12-17T14:25:13.970Z,92.40
2018-12-17T14:27:42.736Z,92.50
2018-12-17T14:30:11.833Z,93.70
2018-12-17T14:32:40.597Z,95.40
2018-12-17T14:35:09.326Z,95.40
2018-12-17T14:37:39.661Z,96.60
2018-12-17T14:40:08.607Z,95.60
2018-12-17T14:42:37.330Z,96.90
2018-12-17T14:45:07.001Z,97.50
2018-12-17T14:47:35.697Z,98.10
2018-12-17T14:50:05.042Z,98.20
2018-12-17T14:52:33.769Z,96.80
2018-12-17T14:55:02.493Z,97.00
2018-12-17T14:57:31.367Z,98.20
2018-12-17T15:00:00.110Z,99.90
2018-12-17T15:02:28.823Z,99.90
2018-12-17T15:04:57.527Z,98.00
2018-12-17T15:07:26.283Z,98.80
2018-12-17T15:09:54.997Z,99.90
2018-12-17T15:12:23.707Z,99.90
2018-12-17T15:14:52.404Z,99.40
2018-12-17T15:17:21.071Z,99.90
2018-12-17T15:19:49.788Z,99.80
2018-12-17T15:22:18.646Z,99.90
2018-12-17T15:24:47.383Z,99.90
2018-12-17T15:27:15.991Z,99.90
2018-12-17T15:29:44.947Z,99.90
2018-12-17T15:32:13.893Z,99.90
2018-12-17T15:34:42.596Z,99.90
2018-12-17T15:37:11.306Z,99.90
2018-12-17T15:39:40.037Z,99.90
2018-12-17T15:42:08.804Z,99.90
2018-12-17T15:44:37.559Z,99.90
2018-12-17T15:47:06.224Z,99.90
2018-12-17T15:49:34.908Z,99.90
2018-12-17T15:52:03.622Z,99.90
2018-12-17T15:54:32.336Z,99.90
2018-12-17T15:57:01.061Z,99.90
2018-12-17T15:59:29.964Z,99.90
2018-12-17T16:01:58.672Z,99.90
2018-12-17T16:04:27.417Z,99.80
2018-12-17T16:06:56.143Z,99.00
2018-12-17T16:09:24.815Z,99.90
2018-12-17T16:11:53.718Z,99.90
2018-12-17T16:14:22.405Z,99.90
2018-12-17T16:16:51.115Z,99.90
2018-12-17T16:19:19.854Z,99.90
2018-12-17T16:21:49.367Z,99.90
2018-12-17T16:24:18.055Z,99.90
2018-12-17T16:26:46.739Z,99.90
2018-12-17T16:29:15.527Z,99.90
2018-12-17T16:31:44.202Z,99.80
2018-12-17T16:34:12.966Z,99.90
2018-12-17T16:36:42.183Z,97.60
2018-12-17T16:39:11.097Z,99.40
2018-12-17T16:41:39.794Z,99.20
2018-12-17T16:44:08.509Z,99.90
2018-12-17T16:46:37.210Z,99.90
2018-12-17T16:49:06.025Z,99.60
2018-12-17T16:51:34.751Z,99.90
2018-12-17T16:54:03.459Z,99.90
2018-12-17T16:56:32.310Z,99.90
2018-12-17T16:59:01.037Z,99.90
2018-12-17T17:01:29.747Z,99.20
2018-12-17T17:03:58.483Z,99.90
2018-12-17T17:06:27.157Z,99.90
2018-12-17T17:08:55.938Z,99.90
2018-12-17T17:11:24.644Z,99.90
2018-12-17T17:13:53.348Z,99.90
2018-12-17T17:16:22.192Z,99.90
2018-12-17T17:18:51.074Z,99.90
2018-12-17T17:21:19.770Z,99.90
2018-12-17T17:23:48.430Z,99.90
2018-12-17T17:26:17.269Z,99.90
2018-12-17T17:28:45.981Z,99.90
2018-12-17T17:31:14.683Z,99.90
2018-12-17T17:33:43.421Z,99.90
2018-12-17T17:36:12.343Z,99.90
2018-12-17T17:38:41.059Z,99.90
2018-12-17T17:41:09.758Z,99.90
2018-12-17T17:43:38.531Z,99.90
2018-12-17T17:46:07.225Z,99.90
2018-12-17T17:48:35.899Z,99.90
2018-12-17T17:51:04.615Z,99.90
2018-12-17T17:53:33.301Z,99.90
2018-12-17T17:56:02.011Z,99.90
2018-12-17T17:58:30.909Z,99.90
2018-12-17T18:00:59.588Z,99.90
2018-12-17T18:03:28.351Z,99.90
2018-12-17T18:05:57.018Z,99.90
2018-12-17T18:08:25.796Z,99.90
2018-12-17T18:10:54.554Z,99.90
2018-12-17T18:13:23.533Z,99.90
2018-12-17T18:15:52.266Z,99.90
2018-12-17T18:18:21.022Z,99.90
2018-12-17T18:20:49.997Z,99.90
2018-12-17T18:23:18.745Z,99.90
2018-12-17T18:25:47.489Z,99.90
2018-12-17T18:28:16.163Z,99.90
2018-12-17T18:30:44.909Z,99.90
2018-12-17T18:33:13.745Z,99.90
2018-12-17T18:35:42.466Z,99.90
2018-12-17T18:38:11.194Z,99.90
2018-12-17T18:40:39.889Z,99.90
2018-12-17T18:43:08.617Z,99.90
2018-12-17T18:45:37.285Z,99.90
2018-12-17T18:48:05.990Z,99.90
2018-12-17T18:50:34.703Z,99.90
2018-12-17T18:53:03.441Z,99.90
2018-12-17T18:55:32.103Z,99.90
2018-12-17T18:58:00.854Z,99.90
2018-12-17T19:00:29.529Z,99.90
2018-12-17T19:02:58.280Z,99.90
2018-12-17T19:05:26.992Z,99.90
2018-12-17T19:07:55.718Z,99.90
2018-12-17T19:10:26.126Z,99.90
2018-12-17T19:12:54.840Z,99.90
2018-12-17T19:15:23.593Z,99.60
2018-12-17T19:17:52.320Z,99.90
2018-12-17T19:20:21.031Z,99.90
2018-12-17T19:22:49.713Z,99.90
2018-12-17T19:25:18.562Z,99.90
2018-12-17T19:27:47.724Z,99.90
2018-12-17T19:30:16.689Z,99.90
2018-12-17T19:32:45.393Z,99.90
2018-12-17T19:35:14.260Z,99.90
2018-12-17T19:37:43.867Z,99.90
2018-12-17T19:40:12.996Z,99.90
2018-12-17T19:42:41.830Z,99.90
2018-12-17T19:45:10.605Z,99.90
2018-12-17T19:47:39.275Z,99.90
2018-12-17T19:50:08.429Z,99.90
2018-12-17T19:52:37.354Z,99.90
2018-12-17T19:55:06.465Z,99.90
2018-12-17T19:57:35.500Z,99.90
2018-12-17T20:00:06.760Z,99.90
2018-12-17T20:02:35.516Z,99.90
2018-12-17T20:05:04.769Z,99.90
2018-12-17T20:07:33.460Z,99.90
2018-12-17T20:10:02.160Z,99.90
2018-12-17T20:12:30.851Z,99.90
2018-12-17T20:14:59.600Z,99.90
2018-12-17T20:17:28.333Z,99.90
2018-12-17T20:19:57.012Z,99.90
2018-12-17T20:22:25.743Z,99.90
2018-12-17T20:24:54.878Z,99.90
2018-12-17T20:27:23.644Z,99.90
2018-12-17T20:29:52.375Z,99.90
2018-12-17T20:32:21.109Z,99.90
2018-12-17T20:34:49.791Z,99.90
2018-12-17T20:37:18.471Z,99.90
2018-12-17T20:39:47.148Z,99.90
2018-12-17T20:42:15.857Z,99.90
2018-12-17T20:44:44.625Z,99.90
2018-12-17T20:47:13.330Z,99.90
2018-12-17T20:49:42.042Z,99.90
2018-12-17T20:52:10.729Z,99.90
2018-12-17T20:54:39.442Z,99.90
2018-12-17T20:57:08.162Z,99.90
2018-12-17T20:59:36.860Z,99.90
2018-12-17T21:02:05.658Z,99.90
2018-12-17T21:04:34.418Z,99.90
2018-12-17T21:07:03.092Z,99.90
2018-12-17T21:09:31.819Z,99.90
2018-12-17T21:12:00.574Z,99.90
2018-12-17T21:14:29.272Z,99.90
2018-12-17T21:16:58.170Z,99.90
2018-12-17T21:19:26.978Z,99.90
2018-12-17T21:21:55.941Z,99.90
2018-12-17T21:24:24.658Z,99.90
2018-12-17T21:26:53.349Z,99.90
2018-12-17T21:29:22.042Z,99.90
2018-12-17T21:31:50.801Z,99.90
2018-12-17T21:34:19.465Z,99.90
2018-12-17T21:36:48.207Z,99.90
2018-12-17T21:39:16.884Z,99.90
2018-12-17T21:41:45.619Z,99.90
2018-12-17T21:44:14.438Z,99.90
2018-12-17T21:46:43.182Z,99.90
2018-12-17T21:49:11.993Z,99.90
2018-12-17T21:51:40.730Z,99.90
2018-12-17T21:54:09.462Z,99.90
2018-12-17T21:56:38.157Z,99.90
2018-12-17T21:59:06.883Z,99.90
2018-12-17T22:01:35.599Z,99.90
2018-12-17T22:04:04.270Z,99.90
2018-12-17T22:06:33.007Z,99.90
2018-12-17T22:09:01.667Z,99.90
2018-12-17T22:11:30.452Z,99.90
2018-12-17T22:13:59.234Z,99.90
2018-12-17T22:16:27.967Z,99.90
2018-12-17T22:18:56.679Z,99.90
2018-12-17T22:21:25.367Z,99.90
2018-12-17T22:23:54.091Z,99.90
2018-12-17T22:26:29.090Z,99.90
2018-12-17T22:28:53.791Z,99.90
2018-12-17T22:31:22.881Z,99.90
2018-12-17T22:33:51.593Z,99.90
2018-12-17T22:36:20.367Z,99.90
2018-12-17T22:38:49.102Z,99.90
2018-12-17T22:41:17.783Z,99.90
2018-12-17T22:43:46.552Z,99.90
2018-12-17T22:46:15.256Z,99.90
2018-12-17T22:48:44.053Z,99.90
2018-12-17T22:51:12.754Z,99.90
2018-12-17T22:53:41.477Z,99.90
2018-12-17T22:56:10.220Z,99.90
2018-12-17T22:58:42.336Z,99.90
2018-12-17T23:01:09.747Z,99.90
2018-12-17T23:03:38.433Z,99.90
2018-12-17T23:06:07.133Z,99.90
2018-12-17T23:08:37.720Z,99.90
2018-12-17T23:11:17.536Z,99.90
2018-12-17T23:13:57.691Z,99.90
2018-12-17T23:16:37.740Z,99.90
2018-12-17T23:19:05.403Z,99.90
2018-12-17T23:21:34.168Z,99.90
2018-12-17T23:24:02.980Z,99.90
2018-12-17T23:26:31.768Z,99.90
2018-12-17T23:29:00.506Z,99.90
2018-12-17T23:31:29.220Z,99.90
2018-12-17T23:33:57.926Z,99.90
2018-12-17T23:36:26.625Z,99.90
2018-12-17T23:38:55.344Z,99.90
2018-12-17T23:41:24.107Z,99.90
2018-12-17T23:43:53.140Z,99.90
2018-12-17T23:46:21.821Z,99.90
2018-12-17T23:48:50.608Z,99.90
2018-12-17T23:51:19.288Z,99.90
2018-12-17T23:53:47.966Z,99.90
2018-12-17T23:56:16.706Z,99.90
2018-12-17T23:58:45.492Z,99.90
